Hoytsville, Utah
Current Conditions -  °F | °C
As of 4:53 PM on Monday 20 Oct 2014 (Local Time) from KEVW Reporting Station
Clear Clear  
Wind Chill: 64°   Ceiling: Unl
Heat Index: 64°   Visibility: 10mi
Dew Point: 31°   Wind: 14mph
Humidity: 29%   Direction: 240°WSW
Pressure: 30.1"   Gusts: NA
Location:  40.9431°N, 111.212°W
Report Text: KEVW 202253Z AUTO 24012KT 10SM CLR 18/M01 A3010 RMK AO2 SLP123 T01781006 TSNO
Loading
Personal Weather Stations






























Interactive Weather Map
Tropical Storm Tracking
New forecast layout! Learn more

10-Day Weather Forecast

Advertisements
Track Severe Weather on mobile